CYHZ/YHZ METAR and TAF weather

Enter ICAO airport designator
Station Type Date Time Source
CYHZ METAR 2019/02/23 17:00 UTC NOAA

CYHZ 231700Z 32014G22KT 15SM FEW180 SCT260 M04/M14 A3025 RMK CS2CI2 SLP253


Station Type Date Time Source
CYHZ Decoded METAR 2019/02/23 17:00 UTC NOAA

Halifax International Airport , Canada (CYHZ) 44-53N 063-30W
Feb 23, 2019 - 12:00 PM EST / 2019.02.23 1700 UTC
Wind: from the NW (320 degrees) at 16 MPH (14 KT) gusting to 25 MPH (22 KT):0
Visibility: 15 mile(s):0
Sky conditions: partly cloudy
Temperature: 24 F (-4 C)
Windchill: 10 F (-12 C):1
Dew Point: 6 F (-14 C)
Relative Humidity: 45%
Pressure (altimeter): 30.25 in. Hg (1024 hPa)
ob: CYHZ 231700Z 32014G22KT 15SM FEW180 SCT260 M04/M14 A3025 RMK CS2CI2 SLP253
cycle: 17

Station Type Date Time Source
CYHZ TAF 2019/02/23 15:42 UTC NOAA

TAF TAF CYHZ 231439Z 2315/2412 31012KT P6SM SKC
FM231600 30015KT P6SM FEW030
BECMG 2322/2324 32010KT
BECMG 2401/2403 VRB03KT
RMK NXT FCST BY 231800Z


Example: see airport list